Belle Fourche, South Dakota
Current Conditions -  °F | °C
As of 7:35 AM on Thursday 23 Oct 2014 (Local Time) from KSPF Reporting Station
Clear Clear  
Wind Chill: 38°   Ceiling: Unl
Heat Index: 41°   Visibility: 10mi
Dew Point: 18°   Wind: 5mph
Humidity: 39%   Direction: 150°SSE
Pressure: 29.96"   Gusts: NA
Location:  44.67°N, 103.85°W
Report Text: KSPF 231335Z AUTO 15004KT 10SM CLR 05/M08 A2996 RMK AO2
Loading
Personal Weather Stations






























Interactive Weather Map
Tropical Storm Tracking
New forecast layout! Learn more

10-Day Weather Forecast

Advertisements
Track Severe Weather on mobile